Time;durP1;ratioP1;P1;durP2;ratioP2;P2;SDS_P1;SDS_P2;PMS_P1;PMS_P2;Temp;Humidity;BMP_temperature;BMP_pressure;BME280_temperature;BME280_humidity;BME280_pressure;Samples;Min_cycle;Max_cycle;Signal;HPM_P1;HPM_P2
2023/05/05 00:01:23;;;;;;;6.17;5.17;;;;;;;14.56;75.68;98173.13;5071048;28;20214;-78
2023/05/05 00:03:52;;;;;;;6.13;5.37;;;;;;;14.57;76.68;98171.28;5071181;28;20232;-78
2023/05/05 00:06:18;;;;;;;7.37;5.83;;;;;;;14.59;76.14;98170.19;5070423;28;20214;-78
2023/05/05 00:08:45;;;;;;;7.57;6.10;;;;;;;14.62;75.54;98163.75;5071597;28;20548;-78
2023/05/05 00:11:12;;;;;;;8.87;6.43;;;;;;;14.65;75.04;98168.81;5071140;28;20707;-78
2023/05/05 00:13:38;;;;;;;7.20;6.20;;;;;;;14.64;75.39;98160.00;5071424;28;20241;-78
2023/05/05 00:16:05;;;;;;;6.87;6.10;;;;;;;14.62;75.09;98153.97;5071233;28;20207;-78
2023/05/05 00:18:32;;;;;;;9.30;6.37;;;;;;;14.64;75.00;98157.34;5071322;28;20239;-78
2023/05/05 00:21:00;;;;;;;8.20;6.17;;;;;;;14.63;74.82;98155.66;5070822;28;20212;-78
2023/05/05 00:23:27;;;;;;;7.07;6.07;;;;;;;14.62;75.26;98158.44;5071300;28;20609;-78
2023/05/05 00:25:53;;;;;;;6.97;6.03;;;;;;;14.64;74.80;98153.81;5071047;28;20217;-78
2023/05/05 00:28:20;;;;;;;7.80;6.30;;;;;;;14.60;75.16;98155.91;5071250;28;20575;-78
2023/05/05 00:30:46;;;;;;;6.83;5.87;;;;;;;14.54;75.93;98160.91;5070788;28;20628;-78
2023/05/05 00:33:13;;;;;;;9.57;6.47;;;;;;;14.49;77.03;98163.13;5070998;28;20237;-78
2023/05/05 00:35:39;;;;;;;7.93;6.27;;;;;;;14.47;77.48;98163.25;5070916;28;20221;-78
2023/05/05 00:38:07;;;;;;;7.30;5.97;;;;;;;14.46;77.33;98164.22;5070818;28;20241;-78
2023/05/05 00:40:34;;;;;;;7.47;6.23;;;;;;;14.43;77.36;98168.94;5070861;28;20220;-78
2023/05/05 00:43:00;;;;;;;8.03;6.27;;;;;;;14.45;77.80;98172.31;5070847;28;20780;-78
2023/05/05 00:45:27;;;;;;;7.27;6.27;;;;;;;14.41;77.37;98157.59;5071005;28;20210;-78
2023/05/05 00:47:55;;;;;;;7.43;6.37;;;;;;;14.38;77.60;98160.50;5070891;28;20212;-78
2023/05/05 00:50:23;;;;;;;7.10;6.33;;;;;;;14.43;76.88;98158.31;5070381;28;20208;-78
2023/05/05 00:52:52;;;;;;;9.63;6.80;;;;;;;14.40;76.85;98166.53;5070799;28;20213;-78
2023/05/05 00:55:20;;;;;;;7.80;6.53;;;;;;;14.34;77.36;98161.72;5070747;28;20215;-78
2023/05/05 00:57:48;;;;;;;7.27;6.43;;;;;;;14.33;78.36;98168.03;5070879;28;20599;-78
2023/05/05 01:00:16;;;;;;;8.83;6.50;;;;;;;14.30;78.65;98166.47;5070458;28;20332;-78
2023/05/05 01:02:44;;;;;;;8.20;6.13;;;;;;;14.29;79.44;98161.28;5067719;28;20207;-77
2023/05/05 01:05:12;;;;;;;8.50;6.63;;;;;;;14.30;79.46;98162.97;5067818;28;20218;-78
2023/05/05 01:07:48;;;;;;;8.77;6.67;;;;;;;14.26;80.37;98167.72;5067968;28;20684;-78
2023/05/05 01:10:22;;;;;;;8.27;6.70;;;;;;;14.25;81.70;98175.81;5069513;28;20213;-78
2023/05/05 01:12:58;;;;;;;8.30;6.87;;;;;;;14.25;82.33;98171.31;5070612;28;20260;-78
2023/05/05 01:15:32;;;;;;;8.60;6.50;;;;;;;14.24;82.81;98179.44;5070643;28;20212;-78
2023/05/05 01:18:06;;;;;;;8.27;6.70;;;;;;;14.20;83.52;98172.69;5071833;28;20254;-78
2023/05/05 01:20:40;;;;;;;7.40;6.07;;;;;;;14.12;83.91;98173.28;5074466;28;20217;-78
2023/05/05 01:23:09;;;;;;;8.33;6.70;;;;;;;14.09;83.72;98175.34;5074205;28;20720;-78
2023/05/05 01:26:08;;;;;;;8.53;6.40;;;;;;;14.05;83.68;98172.09;5074140;28;20216;-78
2023/05/05 01:28:51;;;;;;;10.80;6.97;;;;;;;14.02;83.36;98168.84;5074362;28;20210;-78
2023/05/05 01:31:24;;;;;;;11.43;6.90;;;;;;;14.00;82.90;98165.47;5073950;28;20219;-76
2023/05/05 01:33:58;;;;;;;8.07;6.87;;;;;;;13.98;83.27;98168.25;5073893;28;20268;-77
2023/05/05 01:36:32;;;;;;;9.60;7.00;;;;;;;13.94;84.06;98168.66;5074376;28;20217;-77
2023/05/05 01:39:01;;;;;;;11.47;7.27;;;;;;;13.87;85.16;98170.13;5074059;28;20230;-76
2023/05/05 01:41:31;;;;;;;10.00;7.70;;;;;;;13.79;86.20;98172.53;5073854;28;20212;-77
2023/05/05 01:44:02;;;;;;;9.53;6.90;;;;;;;13.72;86.69;98166.03;5073884;28;20222;-76
2023/05/05 01:46:30;;;;;;;9.77;8.00;;;;;;;13.65;87.47;98170.16;5073870;28;20588;-76
2023/05/05 01:48:59;;;;;;;10.20;8.00;;;;;;;13.61;88.27;98176.69;5073888;28;20213;-76
2023/05/05 01:51:27;;;;;;;9.80;7.33;;;;;;;13.54;88.01;98168.38;5073627;28;20214;-78
2023/05/05 01:53:58;;;;;;;9.07;7.33;;;;;;;13.49;89.19;98169.69;5073706;28;20605;-77
2023/05/05 01:56:25;;;;;;;10.13;7.43;;;;;;;13.48;89.44;98168.88;5074276;28;20210;-77
2023/05/05 01:58:54;;;;;;;10.53;8.37;;;;;;;13.50;89.51;98174.06;5073423;28;20241;-76
2023/05/05 02:01:24;;;;;;;10.27;7.83;;;;;;;13.51;90.31;98167.78;5073323;28;20206;-77
2023/05/05 02:03:51;;;;;;;10.30;8.60;;;;;;;13.53;89.82;98160.53;5073646;28;20337;-76
2023/05/05 02:06:21;;;;;;;9.53;7.70;;;;;;;13.54;90.10;98162.22;5073690;28;20213;-76
2023/05/05 02:08:49;;;;;;;9.37;7.67;;;;;;;13.53;90.01;98165.84;5073544;28;20701;-76
2023/05/05 02:11:17;;;;;;;9.20;7.47;;;;;;;13.57;90.37;98167.28;5073277;28;20214;-77
2023/05/05 02:13:44;;;;;;;10.80;7.37;;;;;;;13.56;90.23;98163.78;5073153;28;20601;-76
2023/05/05 02:16:12;;;;;;;10.23;7.90;;;;;;;13.59;90.86;98171.53;5073585;28;20208;-78
2023/05/05 02:18:40;;;;;;;9.80;7.40;;;;;;;13.63;91.19;98177.41;5073414;28;20235;-76
2023/05/05 02:21:07;;;;;;;10.50;8.40;;;;;;;13.66;90.87;98166.53;5073060;28;20211;-76
2023/05/05 02:23:36;;;;;;;10.63;7.93;;;;;;;13.68;90.17;98180.56;5073398;28;20235;-76
2023/05/05 02:26:07;;;;;;;12.03;7.97;;;;;;;13.65;89.83;98180.78;5073138;28;20263;-76
2023/05/05 02:28:39;;;;;;;10.67;7.90;;;;;;;13.71;88.52;98185.59;5073238;28;20226;-76
2023/05/05 02:31:08;;;;;;;9.80;8.03;;;;;;;13.67;88.39;98185.00;5071956;28;20213;-76
2023/05/05 02:33:36;;;;;;;9.27;7.43;;;;;;;13.64;88.99;98185.25;5073002;28;20241;-76
2023/05/05 02:36:11;;;;;;;8.93;6.73;;;;;;;13.57;89.22;98184.06;5073123;28;20209;-76
2023/05/05 02:38:42;;;;;;;9.90;7.33;;;;;;;13.54;89.73;98188.78;5072730;28;20250;-76
2023/05/05 02:41:11;;;;;;;8.33;6.80;;;;;;;13.47;89.63;98188.44;5072496;28;20216;-76
2023/05/05 02:43:40;;;;;;;8.30;7.47;;;;;;;13.44;90.22;98191.31;5072772;28;20286;-76
2023/05/05 02:46:08;;;;;;;7.57;6.77;;;;;;;13.40;91.26;98194.34;5073008;28;20205;-76
2023/05/05 02:48:34;;;;;;;9.07;7.13;;;;;;;13.34;91.71;98193.03;5072657;28;20209;-77
2023/05/05 02:51:01;;;;;;;7.40;6.60;;;;;;;13.29;92.37;98197.00;5072337;28;20242;-78
2023/05/05 02:53:28;;;;;;;8.13;7.00;;;;;;;13.20;93.14;98190.59;5087444;22;20237;-83
2023/05/05 02:56:05;;;;;;;9.77;7.60;;;;;;;13.16;93.45;98198.94;5073152;28;20205;-83
2023/05/05 02:58:41;;;;;;;7.90;6.77;;;;;;;13.12;94.07;98205.44;5072963;28;20232;-83
2023/05/05 03:01:16;;;;;;;8.10;7.07;;;;;;;13.08;94.25;98201.34;5072420;28;20207;-82
2023/05/05 03:03:51;;;;;;;8.77;7.87;;;;;;;13.00;95.47;98199.28;5072886;28;20289;-82
2023/05/05 03:06:20;;;;;;;8.80;7.37;;;;;;;13.03;94.98;98200.84;5072743;28;20223;-83
2023/05/05 03:08:53;;;;;;;8.10;7.10;;;;;;;12.98;95.29;98200.38;5072661;28;20205;-83
2023/05/05 03:11:27;;;;;;;12.27;7.93;;;;;;;12.95;95.35;98205.91;5072328;28;20614;-83
2023/05/05 03:14:04;;;;;;;8.13;7.23;;;;;;;12.94;95.46;98209.47;5072125;28;20228;-82
2023/05/05 03:16:34;;;;;;;8.17;6.87;;;;;;;12.92;95.96;98214.94;5072573;28;20586;-82
2023/05/05 03:19:02;;;;;;;8.83;7.70;;;;;;;12.91;96.11;98209.72;5072139;28;20240;-82
2023/05/05 03:21:29;;;;;;;9.03;7.17;;;;;;;12.87;96.62;98208.28;5072045;28;20215;-82
2023/05/05 03:23:57;;;;;;;9.43;7.20;;;;;;;12.90;96.89;98205.41;5071844;28;20239;-82
2023/05/05 03:26:24;;;;;;;9.10;7.63;;;;;;;12.95;96.82;98205.91;5072305;28;20204;-83
2023/05/05 03:28:51;;;;;;;8.83;7.03;;;;;;;13.01;96.06;98203.63;5071955;28;20210;-83
2023/05/05 03:31:18;;;;;;;8.90;7.20;;;;;;;13.03;96.33;98200.84;5072019;28;20206;-82
2023/05/05 03:33:44;;;;;;;9.37;6.97;;;;;;;13.04;96.71;98205.19;5071982;28;20225;-82
2023/05/05 03:36:11;;;;;;;7.50;6.80;;;;;;;12.99;97.00;98204.69;5072082;28;20212;-82
2023/05/05 03:38:37;;;;;;;7.83;6.77;;;;;;;12.96;97.38;98208.44;5071757;28;20721;-82
2023/05/05 03:41:04;;;;;;;7.83;7.03;;;;;;;12.98;97.27;98208.31;5071239;28;20203;-83
2023/05/05 03:43:32;;;;;;;8.53;6.97;;;;;;;13.00;97.24;98201.94;5071571;28;20241;-83
2023/05/05 03:45:58;;;;;;;7.77;6.97;;;;;;;13.02;97.68;98201.81;5071665;28;20218;-83
2023/05/05 03:48:24;;;;;;;8.90;6.83;;;;;;;13.02;98.00;98204.47;5071504;28;20209;-83
2023/05/05 03:50:51;;;;;;;8.10;7.30;;;;;;;13.00;98.36;98209.03;5071185;28;20210;-82
2023/05/05 03:53:18;;;;;;;9.90;7.53;;;;;;;13.00;99.32;98206.38;5071397;28;20232;-82
2023/05/05 03:55:44;;;;;;;7.40;6.70;;;;;;;13.04;99.63;98208.72;5071345;28;20204;-83
2023/05/05 03:58:11;;;;;;;7.60;6.77;;;;;;;13.08;99.89;98207.47;5071588;28;20238;-82
2023/05/05 04:00:39;;;;;;;8.03;7.23;;;;;;;13.16;99.75;98214.84;5071208;28;20226;-82
2023/05/05 04:03:06;;;;;;;7.67;6.90;;;;;;;13.21;100.00;98212.69;5072061;28;20629;-83
2023/05/05 04:05:32;;;;;;;7.87;6.93;;;;;;;13.25;99.35;98206.16;5071813;28;20214;-83
2023/05/05 04:07:59;;;;;;;7.17;6.47;;;;;;;13.27;99.11;98213.03;5071567;28;20217;-83
2023/05/05 04:10:27;;;;;;;9.10;7.20;;;;;;;13.31;99.37;98210.97;5071308;28;20204;-83
2023/05/05 04:12:53;;;;;;;7.83;6.97;;;;;;;13.33;99.57;98206.41;5071883;28;20206;-83
2023/05/05 04:15:20;;;;;;;7.53;6.70;;;;;;;13.37;99.03;98210.50;5071259;28;20224;-83
2023/05/05 04:17:47;;;;;;;9.47;7.63;;;;;;;13.40;98.56;98212.94;5071552;28;20242;-83
2023/05/05 04:20:14;;;;;;;8.70;7.13;;;;;;;13.35;98.25;98212.44;5071310;28;20235;-83
2023/05/05 04:22:40;;;;;;;8.13;7.33;;;;;;;13.37;98.02;98207.84;5074805;28;20208;-83
2023/05/05 04:25:07;;;;;;;10.27;8.10;;;;;;;13.37;98.21;98214.00;5087662;28;20236;-83
2023/05/05 04:27:34;;;;;;;12.17;8.83;;;;;;;13.31;99.08;98208.31;5085606;28;20218;-82
2023/05/05 04:30:00;;;;;;;9.37;8.07;;;;;;;13.28;99.08;98213.91;5087538;28;20201;-84
2023/05/05 04:32:27;;;;;;;10.13;8.57;;;;;;;13.23;99.30;98210.75;5084207;28;20331;-82
2023/05/05 04:34:55;;;;;;;10.47;9.10;;;;;;;13.20;100.00;98213.66;5083754;28;20233;-83
2023/05/05 04:37:21;;;;;;;10.43;8.53;;;;;;;13.15;100.00;98218.47;5073214;28;20211;-82
2023/05/05 04:39:48;;;;;;;11.17;9.27;;;;;;;13.13;100.00;98220.38;5071934;28;20236;-83
2023/05/05 04:42:14;;;;;;;11.00;9.27;;;;;;;13.18;100.00;98218.22;5072051;28;20209;-83
2023/05/05 04:44:41;;;;;;;10.60;8.53;;;;;;;13.21;100.00;98221.47;5071292;28;20240;-83
2023/05/05 04:47:07;;;;;;;11.80;9.13;;;;;;;13.30;100.00;98233.19;5071520;28;20671;-83
2023/05/05 04:49:34;;;;;;;11.47;8.43;;;;;;;13.43;100.00;98232.13;5071384;28;20217;-83
2023/05/05 04:52:02;;;;;;;11.97;9.50;;;;;;;13.58;100.00;98230.06;5071292;28;20206;-83
2023/05/05 04:54:28;;;;;;;11.87;9.57;;;;;;;13.74;100.00;98230.53;5075034;28;20239;-83
2023/05/05 04:56:55;;;;;;;13.87;10.30;;;;;;;13.85;100.00;98227.81;5075457;28;20209;-83
2023/05/05 04:59:21;;;;;;;12.87;10.20;;;;;;;13.97;100.00;98234.81;5075107;28;20357;-84
2023/05/05 05:01:47;;;;;;;13.20;9.47;;;;;;;14.03;100.00;98223.69;5075335;28;20213;-83
2023/05/05 05:04:17;;;;;;;14.97;10.60;;;;;;;14.07;100.00;98233.97;5075670;28;20241;-83
2023/05/05 05:06:43;;;;;;;12.73;9.57;;;;;;;14.16;100.00;98240.31;5075622;28;20636;-84
2023/05/05 05:09:11;;;;;;;12.73;9.50;;;;;;;14.20;100.00;98244.44;5074777;28;20215;-84
2023/05/05 05:11:38;;;;;;;12.00;9.67;;;;;;;14.27;100.00;98241.16;5075486;28;20264;-83
2023/05/05 05:14:04;;;;;;;14.90;10.13;;;;;;;14.39;100.00;98255.25;5075110;28;20239;-83
2023/05/05 05:16:31;;;;;;;13.57;8.90;;;;;;;14.52;100.00;98256.78;5075036;28;20210;-83
2023/05/05 05:18:57;;;;;;;13.13;10.30;;;;;;;14.68;100.00;98251.03;5074647;28;20241;-83
2023/05/05 05:21:24;;;;;;;13.67;10.40;;;;;;;14.80;100.00;98248.16;5074391;28;20547;-83
2023/05/05 05:23:51;;;;;;;14.30;9.63;;;;;;;14.98;100.00;98253.78;5074718;28;20786;-83
2023/05/05 05:26:19;;;;;;;13.47;10.33;;;;;;;15.09;99.93;98253.72;5074770;28;20214;-83
2023/05/05 05:28:46;;;;;;;16.40;11.03;;;;;;;15.16;99.00;98254.88;5074823;28;20203;-83
2023/05/05 05:31:12;;;;;;;14.43;10.23;;;;;;;15.15;97.10;98247.88;5074262;28;20681;-83
2023/05/05 05:33:39;;;;;;;14.97;10.40;;;;;;;15.09;96.43;98251.88;5074533;28;20230;-84
2023/05/05 05:36:05;;;;;;;13.07;10.20;;;;;;;15.04;96.25;98255.91;5075023;28;20211;-83
2023/05/05 05:38:32;;;;;;;13.17;10.33;;;;;;;14.97;96.68;98255.56;5074707;28;20238;-83
2023/05/05 05:40:58;;;;;;;12.03;10.47;;;;;;;14.91;96.31;98255.28;5074006;28;20208;-83
2023/05/05 05:43:26;;;;;;;13.37;9.97;;;;;;;14.94;96.67;98257.66;5073983;28;20247;-83
2023/05/05 05:45:53;;;;;;;11.20;9.47;;;;;;;15.01;96.40;98256.16;5074149;28;20210;-83
2023/05/05 05:48:20;;;;;;;14.13;10.33;;;;;;;15.13;95.99;98257.78;5073924;28;20696;-83
2023/05/05 05:50:47;;;;;;;12.13;9.43;;;;;;;15.24;95.64;98257.72;5073659;28;20215;-83
2023/05/05 05:53:13;;;;;;;10.87;8.57;;;;;;;15.61;94.51;98261.56;5073810;28;20696;-83
2023/05/05 05:55:40;;;;;;;11.10;8.57;;;;;;;16.29;90.25;98247.31;5074015;28;20227;-83
2023/05/05 05:58:06;;;;;;;8.07;7.27;;;;;;;17.05;85.72;98244.66;5073947;28;20211;-83
2023/05/05 06:00:34;;;;;;;9.70;7.83;;;;;;;17.66;81.56;98235.22;5073537;28;20598;-82
2023/05/05 06:03:01;;;;;;;9.73;8.50;;;;;;;18.14;78.40;98238.50;5073814;28;20212;-83
2023/05/05 06:05:27;;;;;;;13.57;8.40;;;;;;;18.44;74.66;98227.47;5072507;28;20218;-82
2023/05/05 06:07:54;;;;;;;11.53;8.33;;;;;;;18.52;74.98;98230.22;5073788;28;20215;-83
2023/05/05 06:10:20;;;;;;;8.40;7.33;;;;;;;18.45;75.93;98244.34;5073668;28;20203;-82
2023/05/05 06:12:47;;;;;;;10.53;6.97;;;;;;;18.46;76.23;98244.22;5073954;28;20207;-83
2023/05/05 06:15:13;;;;;;;10.07;7.37;;;;;;;18.53;75.74;98237.25;5073563;28;20325;-83
2023/05/05 06:17:41;;;;;;;9.17;7.00;;;;;;;18.39;76.52;98232.44;5073530;28;20219;-84
2023/05/05 06:20:09;;;;;;;11.47;7.20;;;;;;;18.28;77.65;98240.63;5073485;28;20242;-83
2023/05/05 06:22:35;;;;;;;7.77;6.40;;;;;;;18.12;79.39;98245.84;5073713;28;20203;-83
2023/05/05 06:25:02;;;;;;;7.70;6.57;;;;;;;17.99;80.77;98257.88;5073347;28;20228;-84
2023/05/05 06:27:28;;;;;;;7.03;6.33;;;;;;;17.92;81.99;98256.78;5073384;28;20250;-84
2023/05/05 06:29:55;;;;;;;9.20;6.43;;;;;;;17.90;82.85;98258.75;5074552;28;20218;-83
2023/05/05 06:32:21;;;;;;;9.17;6.90;;;;;;;17.88;81.93;98260.72;5076113;28;20203;-84
2023/05/05 06:34:49;;;;;;;7.60;6.73;;;;;;;18.06;81.55;98259.81;5074019;28;20231;-84
2023/05/05 06:37:16;;;;;;;8.03;6.37;;;;;;;18.24;81.40;98257.97;5073124;28;20214;-84
2023/05/05 06:39:42;;;;;;;8.70;6.50;;;;;;;18.51;80.66;98255.31;5072839;28;20314;-84
2023/05/05 06:42:09;;;;;;;8.13;6.45;;;;;;;18.90;79.27;98251.31;5072890;28;20438;-84
2023/05/05 06:44:36;;;;;;;7.37;6.67;;;;;;;19.08;78.75;98243.25;5073062;28;20227;-80
2023/05/05 06:47:03;;;;;;;9.23;6.27;;;;;;;19.17;77.96;98253.03;5072964;28;20748;-82
2023/05/05 06:49:30;;;;;;;6.90;5.87;;;;;;;19.20;78.05;98256.25;5073096;28;20219;-84
2023/05/05 06:51:57;;;;;;;7.67;6.27;;;;;;;19.22;78.76;98256.13;5072905;28;20696;-83
2023/05/05 06:54:24;;;;;;;9.17;6.63;;;;;;;19.18;78.47;98255.56;5072674;28;20244;-84
2023/05/05 06:56:51;;;;;;;8.93;5.73;;;;;;;19.15;79.32;98266.56;5072747;28;20215;-82
2023/05/05 06:59:17;;;;;;;7.33;6.33;;;;;;;19.09;79.61;98264.50;5072667;28;20310;-82
2023/05/05 07:01:44;;;;;;;7.27;6.53;;;;;;;19.05;79.96;98271.19;5073079;28;20215;-82
2023/05/05 07:04:13;;;;;;;7.73;6.90;;;;;;;19.07;79.67;98271.06;5072909;28;20228;-82
2023/05/05 07:06:39;;;;;;;8.43;6.67;;;;;;;18.96;79.60;98266.75;5072847;28;20211;-78
2023/05/05 07:09:07;;;;;;;7.23;6.30;;;;;;;18.89;79.93;98271.06;5072410;28;20204;-77
2023/05/05 07:11:33;;;;;;;7.13;6.33;;;;;;;18.92;81.14;98280.63;5072278;28;20215;-77
2023/05/05 07:14:00;;;;;;;7.10;6.07;;;;;;;18.93;82.56;98285.84;5072504;28;20604;-77
2023/05/05 07:16:26;;;;;;;11.13;7.00;;;;;;;18.94;82.97;98284.84;5072098;28;20218;-77
2023/05/05 07:18:53;;;;;;;8.53;6.70;;;;;;;18.89;82.03;98283.63;5072384;28;20216;-77
2023/05/05 07:21:19;;;;;;;7.80;6.40;;;;;;;18.83;82.31;98287.75;5071858;28;20204;-75
2023/05/05 07:23:46;;;;;;;9.70;7.10;;;;;;;18.81;82.88;98289.75;5072035;28;20234;-77
2023/05/05 07:26:14;;;;;;;7.53;6.73;;;;;;;18.78;83.89;98292.69;5071913;28;20215;-78
2023/05/05 07:28:41;;;;;;;11.70;7.10;;;;;;;18.78;83.13;98300.75;5069950;28;20223;-78
2023/05/05 07:31:08;;;;;;;11.53;7.03;;;;;;;18.84;82.06;98296.63;5070917;28;20237;-78
2023/05/05 07:33:34;;;;;;;8.57;6.63;;;;;;;18.94;81.46;98300.03;5071293;28;20238;-77
2023/05/05 07:36:01;;;;;;;7.47;6.50;;;;;;;19.10;80.70;98287.66;5069845;28;20924;-78
2023/05/05 07:38:27;;;;;;;6.30;5.70;;;;;;;19.16;81.01;98291.53;5070660;28;20207;-78
2023/05/05 07:40:54;;;;;;;7.03;5.70;;;;;;;19.25;81.81;98293.31;5070821;28;20231;-77
2023/05/05 07:43:22;;;;;;;7.53;5.67;;;;;;;19.30;82.63;98291.88;5070986;28;20556;-82
2023/05/05 07:45:48;;;;;;;9.97;6.27;;;;;;;19.27;83.18;98292.16;5071165;28;20216;-78
2023/05/05 07:48:15;;;;;;;8.13;5.50;;;;;;;19.25;83.25;98288.81;5070951;28;20203;-79
2023/05/05 07:50:41;;;;;;;8.13;5.53;;;;;;;19.24;82.80;98286.28;5070662;28;20207;-79
2023/05/05 07:53:08;;;;;;;7.10;5.57;;;;;;;19.26;81.55;98282.44;5070529;28;20207;-79
2023/05/05 07:55:37;;;;;;;6.53;5.30;;;;;;;19.33;80.90;98286.16;5070999;28;20298;-79
2023/05/05 07:58:03;;;;;;;6.23;4.90;;;;;;;19.37;81.51;98287.56;5070365;28;20204;-80
2023/05/05 08:00:31;;;;;;;6.17;4.67;;;;;;;19.41;81.34;98291.63;5070599;28;20226;-80
2023/05/05 08:02:57;;;;;;;6.70;4.43;;;;;;;19.40;79.83;98287.25;5070373;28;20211;-80
2023/05/05 08:05:24;;;;;;;5.90;4.17;;;;;;;19.34;79.42;98285.19;5070439;28;20630;-80
2023/05/05 08:07:51;;;;;;;6.77;4.10;;;;;;;19.31;80.10;98292.69;5070332;28;20214;-80
2023/05/05 08:10:17;;;;;;;6.23;3.70;;;;;;;19.32;81.05;98299.75;5069856;28;20210;-80
2023/05/05 08:12:44;;;;;;;4.00;3.13;;;;;;;19.30;81.84;98302.59;5070615;28;20214;-80
2023/05/05 08:15:11;;;;;;;4.00;2.63;;;;;;;19.30;81.32;98315.97;5070539;28;20228;-79
2023/05/05 08:17:46;;;;;;;2.67;2.47;;;;;;;19.38;80.31;98299.94;5070473;28;20430;-78
2023/05/05 08:20:13;;;;;;;3.40;2.40;;;;;;;19.29;80.07;98294.69;5070752;28;20308;-79
2023/05/05 08:22:40;;;;;;;3.90;2.70;;;;;;;19.20;79.52;98304.50;5071215;28;20215;-77
2023/05/05 08:25:09;;;;;;;2.40;2.20;;;;;;;19.07;79.37;98301.34;5071033;28;20705;-82
2023/05/05 08:27:37;;;;;;;2.80;2.20;;;;;;;18.90;80.96;98310.22;5070682;28;20211;-81
2023/05/05 08:30:04;;;;;;;2.63;2.23;;;;;;;18.81;83.10;98305.81;5072078;28;20553;-81
2023/05/05 08:32:31;;;;;;;2.50;2.30;;;;;;;18.78;84.70;98319.47;5072505;28;20207;-82
2023/05/05 08:35:01;;;;;;;4.17;2.60;;;;;;;18.75;86.56;98326.97;5073838;28;20239;-81
2023/05/05 08:37:28;;;;;;;3.63;2.60;;;;;;;18.71;87.35;98320.28;5073887;28;20257;-82
2023/05/05 08:39:56;;;;;;;4.80;2.70;;;;;;;18.70;88.35;98323.91;5073008;28;20236;-81
2023/05/05 08:42:22;;;;;;;3.57;2.63;;;;;;;18.68;89.50;98321.41;5071528;28;20246;-82
2023/05/05 08:44:49;;;;;;;3.70;2.77;;;;;;;18.74;90.60;98326.16;5071270;28;20236;-82
2023/05/05 08:47:16;;;;;;;3.80;2.57;;;;;;;18.73;90.52;98324.47;5071212;28;20212;-82
2023/05/05 08:49:45;;;;;;;3.37;2.57;;;;;;;18.75;91.46;98329.66;5071188;28;20207;-82
2023/05/05 08:52:16;;;;;;;2.47;2.27;;;;;;;18.75;91.75;98327.84;5071312;28;20213;-82
2023/05/05 08:54:50;;;;;;;3.87;2.77;;;;;;;18.76;92.33;98318.81;5086007;22;20235;-83
2023/05/05 08:57:24;;;;;;;3.93;3.00;;;;;;;18.71;92.51;98321.09;5071214;28;20215;-83
2023/05/05 08:59:52;;;;;;;2.60;2.40;;;;;;;18.71;92.27;98315.75;5071013;28;20231;-82
2023/05/05 09:02:22;;;;;;;3.43;2.90;;;;;;;18.75;92.66;98324.31;5071788;28;20205;-83
2023/05/05 09:04:50;;;;;;;3.60;2.90;;;;;;;18.76;92.16;98321.47;5071250;28;20274;-82
2023/05/05 09:07:18;;;;;;;2.50;2.30;;;;;;;18.81;91.68;98316.53;5071148;28;20208;-83
2023/05/05 09:09:45;;;;;;;4.53;2.50;;;;;;;18.89;90.56;98324.63;5071153;28;20583;-83
2023/05/05 09:12:12;;;;;;;2.87;2.60;;;;;;;19.00;89.96;98332.44;5071030;28;20211;-83
2023/05/05 09:14:38;;;;;;;3.30;2.40;;;;;;;19.03;89.57;98321.41;5071459;28;20253;-82
2023/05/05 09:17:05;;;;;;;2.73;2.50;;;;;;;19.14;89.18;98318.47;5071529;28;20218;-82
2023/05/05 09:19:31;;;;;;;3.60;2.10;;;;;;;19.21;88.01;98324.94;5070823;28;20306;-84
2023/05/05 09:21:58;;;;;;;5.33;2.47;;;;;;;19.39;85.86;98309.66;5071070;28;20214;-83
2023/05/05 09:24:26;;;;;;;4.40;2.40;;;;;;;19.53;85.16;98314.50;5071119;28;20597;-84
2023/05/05 09:26:54;;;;;;;3.60;2.30;;;;;;;19.68;84.01;98302.16;5070791;28;20211;-79
2023/05/05 09:29:22;;;;;;;2.87;2.50;;;;;;;19.78;82.59;98308.28;5071120;28;20219;-84
2023/05/05 09:32:04;;;;;;;2.30;2.10;;;;;;;19.90;81.43;98298.94;5070356;28;20219;-79
2023/05/05 09:34:33;;;;;;;3.10;2.30;;;;;;;20.03;77.58;98279.72;5070637;28;20314;-77
2023/05/05 09:36:59;;;;;;;5.33;2.60;;;;;;;20.03;78.39;98285.06;5070559;28;20681;-77
2023/05/05 09:39:27;;;;;;;3.20;2.80;;;;;;;20.03;78.56;98285.06;5072114;28;20218;-78
2023/05/05 09:41:54;;;;;;;3.50;2.63;;;;;;;20.07;78.58;98287.34;5074114;28;20673;-80
2023/05/05 09:44:33;;;;;;;3.60;3.30;;;;;;;20.16;80.24;98286.34;5074118;28;20232;-79
2023/05/05 09:47:00;;;;;;;3.33;2.70;;;;;;;20.24;80.07;98283.69;5074500;28;20205;-79
2023/05/05 09:49:27;;;;;;;5.37;2.90;;;;;;;20.33;79.64;98282.72;5073715;28;20302;-79
2023/05/05 09:51:54;;;;;;;3.37;2.90;;;;;;;20.37;78.09;98277.88;5073742;28;20203;-80
2023/05/05 09:54:25;;;;;;;3.60;2.60;;;;;;;20.52;77.65;98271.69;5073789;28;20235;-80
2023/05/05 09:56:53;;;;;;;5.20;2.83;;;;;;;20.70;75.48;98258.97;5074077;28;20214;-78
2023/05/05 09:59:20;;;;;;;2.60;2.40;;;;;;;21.11;74.85;98262.56;5073670;28;20203;-79
2023/05/05 10:01:47;;;;;;;3.30;2.37;;;;;;;21.47;73.54;98264.69;5073879;28;20227;-78
2023/05/05 10:04:25;;;;;;;3.00;2.33;;;;;;;21.83;72.41;98260.59;5073822;28;20223;-79
2023/05/05 10:06:51;;;;;;;2.10;1.90;;;;;;;21.98;69.79;98253.50;5073973;28;20211;-78
2023/05/05 10:09:18;;;;;;;2.40;2.20;;;;;;;22.04;69.26;98249.25;5073818;28;20207;-79
2023/05/05 10:11:46;;;;;;;2.47;2.00;;;;;;;22.08;67.01;98243.34;5073544;28;20208;-79
2023/05/05 10:14:15;;;;;;;2.17;1.80;;;;;;;22.04;67.00;98239.34;5073625;28;20338;-79
2023/05/05 10:16:47;;;;;;;6.97;2.30;;;;;;;22.01;67.88;98241.56;5073422;28;20220;-79
2023/05/05 10:19:15;;;;;;;3.23;1.90;;;;;;;21.97;68.04;98241.06;5073465;28;20269;-79
2023/05/05 10:21:48;;;;;;;2.80;2.10;;;;;;;21.90;65.96;98223.94;5073649;28;20231;-78
2023/05/05 10:24:18;;;;;;;2.43;1.70;;;;;;;21.76;67.04;98230.03;5073589;28;20296;-78
2023/05/05 10:26:46;;;;;;;1.93;1.63;;;;;;;21.59;67.62;98231.03;5073429;28;20630;-80
2023/05/05 10:29:21;;;;;;;2.40;2.10;;;;;;;21.52;68.80;98246.19;5073146;28;20214;-79
2023/05/05 10:31:52;;;;;;;2.43;2.23;;;;;;;21.39;70.20;98250.44;5073582;28;20576;-79
2023/05/05 10:34:28;;;;;;;2.40;1.93;;;;;;;21.29;70.58;98239.88;5073287;28;20733;-79
2023/05/05 10:36:58;;;;;;;2.63;2.20;;;;;;;21.25;70.95;98243.91;5073241;28;20666;-78
2023/05/05 10:39:26;;;;;;;2.17;1.97;;;;;;;21.16;70.75;98236.84;5072932;28;20551;-76
2023/05/05 10:41:53;;;;;;;3.13;2.10;;;;;;;21.08;71.82;98241.41;5073386;28;20250;-81
2023/05/05 10:44:22;;;;;;;3.50;2.20;;;;;;;21.09;72.31;98238.53;5073176;28;20322;-80
2023/05/05 10:46:49;;;;;;;3.30;2.73;;;;;;;21.05;71.06;98237.22;5072933;28;20207;-80
2023/05/05 10:49:24;;;;;;;3.23;2.30;;;;;;;21.02;69.78;98221.41;5072824;28;20218;-77
2023/05/05 10:51:57;;;;;;;3.20;2.40;;;;;;;20.92;68.25;98220.72;5072106;28;20238;-79
2023/05/05 10:54:30;;;;;;;2.67;2.10;;;;;;;20.85;68.07;98219.69;5072750;28;20258;-79
2023/05/05 10:56:57;;;;;;;2.37;2.00;;;;;;;20.79;69.54;98220.34;5073347;28;20203;-83
2023/05/05 10:59:46;;;;;;;2.40;2.13;;;;;;;20.68;69.81;98220.72;5072727;28;20208;-85
2023/05/05 11:02:19;;;;;;;2.53;2.33;;;;;;;20.64;71.09;98224.72;5072886;28;20231;-83
2023/05/05 11:05:08;;;;;;;2.47;2.20;;;;;;;20.58;71.53;98222.72;5069775;28;20312;-84
2023/05/05 11:07:35;;;;;;;2.47;2.27;;;;;;;20.51;71.73;98216.31;5070234;28;20213;-84
2023/05/05 11:10:03;;;;;;;3.93;2.43;;;;;;;20.47;73.59;98214.97;5069719;28;20297;-85
2023/05/05 11:12:29;;;;;;;2.60;2.10;;;;;;;20.45;73.77;98211.59;5072448;28;20207;-83
2023/05/05 11:15:37;;;;;;;3.07;2.37;;;;;;;20.47;76.58;98223.00;5073292;28;20739;-85
2023/05/05 11:18:05;;;;;;;2.57;2.33;;;;;;;20.53;76.17;98218.81;5070060;28;20726;-85
2023/05/05 11:21:03;;;;;;;2.83;2.43;;;;;;;20.71;76.29;98217.69;5069533;28;20234;-85
2023/05/05 11:23:30;;;;;;;2.30;2.10;;;;;;;20.98;74.58;98205.78;5070063;28;20207;-84
2023/05/05 11:25:57;;;;;;;4.10;2.37;;;;;;;21.25;75.05;98206.25;5072580;28;20562;-84
2023/05/05 11:28:29;;;;;;;4.00;2.40;;;;;;;21.49;73.15;98198.16;5074982;28;20594;-84
2023/05/05 11:31:19;;;;;;;2.30;1.97;;;;;;;21.70;73.08;98193.06;5073827;28;20658;-84
2023/05/05 11:33:46;;;;;;;2.17;1.97;;;;;;;21.78;73.00;98206.50;5069927;28;20235;-84
2023/05/05 11:36:14;;;;;;;2.97;2.20;;;;;;;21.82;71.71;98188.97;5069721;28;20206;-83
2023/05/05 11:39:04;;;;;;;2.27;2.07;;;;;;;21.73;64.67;98155.06;5071365;28;20202;-84